sensor_id;sensor_type;location;lat;lon;timestamp;pressure;altitude;pressure_sealevel;temperature;humidity
45793;BME280;31495;42.740;22.908;2023-04-28T00:00:17;93236.50;;;3.59;53.76
45793;BME280;31495;42.740;22.908;2023-04-28T00:01:17;93229.47;;;3.53;54.10
45793;BME280;31495;42.740;22.908;2023-04-28T00:02:16;93270.19;;;3.71;53.87
45793;BME280;31495;42.740;22.908;2023-04-28T00:03:16;93287.44;;;3.85;54.48
45793;BME280;31495;42.740;22.908;2023-04-28T00:04:16;93306.28;;;3.93;53.91
45793;BME280;31495;42.740;22.908;2023-04-28T00:05:16;93296.53;;;3.88;54.24
45793;BME280;31495;42.740;22.908;2023-04-28T00:06:16;93267.66;;;3.71;53.69
45793;BME280;31495;42.740;22.908;2023-04-28T00:07:15;93247.19;;;3.63;54.03
45793;BME280;31495;42.740;22.908;2023-04-28T00:08:14;93318.59;;;3.97;54.15
45793;BME280;31495;42.740;22.908;2023-04-28T00:09:14;93257.13;;;3.58;53.94
45793;BME280;31495;42.740;22.908;2023-04-28T00:10:14;93307.25;;;3.92;54.54
45793;BME280;31495;42.740;22.908;2023-04-28T00:11:14;93317.28;;;4.01;54.61
45793;BME280;31495;42.740;22.908;2023-04-28T00:12:13;93305.94;;;4.04;53.89
45793;BME280;31495;42.740;22.908;2023-04-28T00:13:12;93305.16;;;4.03;53.91
45793;BME280;31495;42.740;22.908;2023-04-28T00:14:12;93287.31;;;3.79;54.53
45793;BME280;31495;42.740;22.908;2023-04-28T00:15:12;93312.69;;;3.89;54.79
45793;BME280;31495;42.740;22.908;2023-04-28T00:16:11;93272.63;;;3.56;55.28
45793;BME280;31495;42.740;22.908;2023-04-28T00:17:11;93283.34;;;3.60;54.64
45793;BME280;31495;42.740;22.908;2023-04-28T00:18:10;93317.50;;;3.83;55.14
45793;BME280;31495;42.740;22.908;2023-04-28T00:19:10;93308.25;;;3.82;54.58
45793;BME280;31495;42.740;22.908;2023-04-28T00:20:10;93314.63;;;3.78;54.36
45793;BME280;31495;42.740;22.908;2023-04-28T00:21:09;93248.50;;;3.42;53.88
45793;BME280;31495;42.740;22.908;2023-04-28T00:22:08;93313.81;;;3.94;53.90
45793;BME280;31495;42.740;22.908;2023-04-28T00:23:09;93312.53;;;3.90;53.88
45793;BME280;31495;42.740;22.908;2023-04-28T00:24:08;93336.38;;;3.91;53.87
45793;BME280;31495;42.740;22.908;2023-04-28T00:25:10;93313.97;;;3.93;54.47
45793;BME280;31495;42.740;22.908;2023-04-28T00:26:10;93290.63;;;3.88;53.98
45793;BME280;31495;42.740;22.908;2023-04-28T00:27:11;93256.44;;;3.64;53.82
45793;BME280;31495;42.740;22.908;2023-04-28T00:28:10;93316.03;;;3.97;54.02
45793;BME280;31495;42.740;22.908;2023-04-28T00:29:09;93277.56;;;3.74;53.95
45793;BME280;31495;42.740;22.908;2023-04-28T00:30:09;93316.69;;;3.91;53.66
45793;BME280;31495;42.740;22.908;2023-04-28T00:31:10;93271.63;;;3.65;54.12
45793;BME280;31495;42.740;22.908;2023-04-28T00:32:10;93312.34;;;3.92;54.05
45793;BME280;31495;42.740;22.908;2023-04-28T00:33:12;93277.13;;;3.62;53.94
45793;BME280;31495;42.740;22.908;2023-04-28T00:34:12;93282.03;;;3.72;53.71
45793;BME280;31495;42.740;22.908;2023-04-28T00:35:13;93256.16;;;3.50;53.80
45793;BME280;31495;42.740;22.908;2023-04-28T00:36:12;93272.47;;;3.66;53.97
45793;BME280;31495;42.740;22.908;2023-04-28T00:37:12;93290.34;;;3.74;54.61
45793;BME280;31495;42.740;22.908;2023-04-28T00:38:11;93297.53;;;3.87;54.09
45793;BME280;31495;42.740;22.908;2023-04-28T00:39:11;93307.41;;;3.90;54.17
45793;BME280;31495;42.740;22.908;2023-04-28T00:40:10;93305.19;;;3.87;54.21
45793;BME280;31495;42.740;22.908;2023-04-28T00:41:10;93299.75;;;3.82;54.22
45793;BME280;31495;42.740;22.908;2023-04-28T00:42:10;93254.75;;;3.48;53.85
45793;BME280;31495;42.740;22.908;2023-04-28T00:43:10;93264.81;;;3.49;53.78
45793;BME280;31495;42.740;22.908;2023-04-28T00:44:09;93271.97;;;3.71;54.06
45793;BME280;31495;42.740;22.908;2023-04-28T00:45:09;93250.56;;;3.55;53.99
45793;BME280;31495;42.740;22.908;2023-04-28T00:46:09;93315.91;;;3.91;53.96
45793;BME280;31495;42.740;22.908;2023-04-28T00:47:09;93291.13;;;3.75;54.17
45793;BME280;31495;42.740;22.908;2023-04-28T00:48:09;93314.78;;;3.85;53.73
45793;BME280;31495;42.740;22.908;2023-04-28T00:49:09;93315.25;;;3.89;53.51
45793;BME280;31495;42.740;22.908;2023-04-28T00:50:09;93295.91;;;3.86;53.37
45793;BME280;31495;42.740;22.908;2023-04-28T00:51:09;93317.97;;;3.95;53.42
45793;BME280;31495;42.740;22.908;2023-04-28T00:52:09;93297.69;;;3.85;53.64
45793;BME280;31495;42.740;22.908;2023-04-28T00:53:10;93305.19;;;3.87;53.60
45793;BME280;31495;42.740;22.908;2023-04-28T00:54:12;93303.72;;;3.93;53.04
45793;BME280;31495;42.740;22.908;2023-04-28T00:55:14;93298.78;;;3.83;53.05
45793;BME280;31495;42.740;22.908;2023-04-28T00:56:14;93302.44;;;3.97;52.83
45793;BME280;31495;42.740;22.908;2023-04-28T00:57:14;93299.88;;;3.89;53.42
45793;BME280;31495;42.740;22.908;2023-04-28T00:58:13;93306.16;;;3.86;52.99
45793;BME280;31495;42.740;22.908;2023-04-28T00:59:13;93302.81;;;3.85;52.99
45793;BME280;31495;42.740;22.908;2023-04-28T01:00:13;93300.53;;;3.91;53.25
45793;BME280;31495;42.740;22.908;2023-04-28T01:01:13;93302.25;;;3.98;53.17
45793;BME280;31495;42.740;22.908;2023-04-28T01:02:13;93294.78;;;3.97;52.70
45793;BME280;31495;42.740;22.908;2023-04-28T01:03:15;93280.88;;;3.83;52.85
45793;BME280;31495;42.740;22.908;2023-04-28T01:04:19;93308.84;;;3.93;52.91
45793;BME280;31495;42.740;22.908;2023-04-28T01:05:19;93301.69;;;3.80;52.70
45793;BME280;31495;42.740;22.908;2023-04-28T01:06:20;93319.41;;;3.90;52.51
45793;BME280;31495;42.740;22.908;2023-04-28T01:07:21;93314.28;;;3.90;52.52
45793;BME280;31495;42.740;22.908;2023-04-28T01:08:27;93318.16;;;3.85;53.00
45793;BME280;31495;42.740;22.908;2023-04-28T01:09:28;93319.28;;;3.83;52.96
45793;BME280;31495;42.740;22.908;2023-04-28T01:10:27;93301.38;;;3.75;52.95
45793;BME280;31495;42.740;22.908;2023-04-28T01:11:26;93226.97;;;3.37;53.02
45793;BME280;31495;42.740;22.908;2023-04-28T01:12:26;93250.88;;;3.52;52.79
45793;BME280;31495;42.740;22.908;2023-04-28T01:13:25;93308.69;;;3.94;52.89
45793;BME280;31495;42.740;22.908;2023-04-28T01:14:24;93286.00;;;3.83;53.42
45793;BME280;31495;42.740;22.908;2023-04-28T01:15:24;93320.00;;;4.08;54.45
45793;BME280;31495;42.740;22.908;2023-04-28T01:16:25;93286.75;;;3.92;54.62
45793;BME280;31495;42.740;22.908;2023-04-28T01:17:25;93321.91;;;4.14;54.89
45793;BME280;31495;42.740;22.908;2023-04-28T01:18:25;93294.75;;;4.05;54.67
45793;BME280;31495;42.740;22.908;2023-04-28T01:19:25;93289.00;;;3.95;54.15
45793;BME280;31495;42.740;22.908;2023-04-28T01:20:26;93257.88;;;3.75;54.22
45793;BME280;31495;42.740;22.908;2023-04-28T01:21:32;93290.44;;;3.97;54.23
45793;BME280;31495;42.740;22.908;2023-04-28T01:22:31;93304.78;;;4.07;54.80
45793;BME280;31495;42.740;22.908;2023-04-28T01:23:31;93288.84;;;3.96;54.00
45793;BME280;31495;42.740;22.908;2023-04-28T01:24:30;93277.06;;;3.79;53.69
45793;BME280;31495;42.740;22.908;2023-04-28T01:25:30;93310.75;;;3.99;53.20
45793;BME280;31495;42.740;22.908;2023-04-28T01:26:29;93281.06;;;3.73;53.35
45793;BME280;31495;42.740;22.908;2023-04-28T01:27:29;93311.09;;;3.96;53.89
45793;BME280;31495;42.740;22.908;2023-04-28T01:28:29;93317.47;;;3.92;53.31
45793;BME280;31495;42.740;22.908;2023-04-28T01:29:28;93280.94;;;3.58;53.66
45793;BME280;31495;42.740;22.908;2023-04-28T01:30:27;93315.94;;;3.74;53.71
45793;BME280;31495;42.740;22.908;2023-04-28T01:31:27;93297.41;;;3.64;54.25
45793;BME280;31495;42.740;22.908;2023-04-28T01:32:29;93296.94;;;3.60;54.11
45793;BME280;31495;42.740;22.908;2023-04-28T01:33:29;93322.97;;;3.64;53.62
45793;BME280;31495;42.740;22.908;2023-04-28T01:34:28;93313.06;;;3.77;54.07
45793;BME280;31495;42.740;22.908;2023-04-28T01:35:28;93307.97;;;3.69;53.44
45793;BME280;31495;42.740;22.908;2023-04-28T01:36:27;93315.28;;;3.72;53.93
45793;BME280;31495;42.740;22.908;2023-04-28T01:37:27;93308.59;;;3.71;54.07
45793;BME280;31495;42.740;22.908;2023-04-28T01:38:27;93294.84;;;3.64;54.88
45793;BME280;31495;42.740;22.908;2023-04-28T01:39:26;93313.53;;;3.73;54.89
45793;BME280;31495;42.740;22.908;2023-04-28T01:40:26;93292.94;;;3.66;54.84
45793;BME280;31495;42.740;22.908;2023-04-28T01:41:26;93318.94;;;3.86;54.48
45793;BME280;31495;42.740;22.908;2023-04-28T01:42:25;93283.03;;;3.63;54.68
45793;BME280;31495;42.740;22.908;2023-04-28T01:43:25;93273.72;;;3.62;55.16
45793;BME280;31495;42.740;22.908;2023-04-28T01:44:25;93322.75;;;3.90;54.52
45793;BME280;31495;42.740;22.908;2023-04-28T01:45:24;93318.75;;;3.96;53.71
45793;BME280;31495;42.740;22.908;2023-04-28T01:46:23;93309.03;;;3.83;53.68
45793;BME280;31495;42.740;22.908;2023-04-28T01:47:23;93315.44;;;3.87;53.35
45793;BME280;31495;42.740;22.908;2023-04-28T01:48:22;93255.75;;;3.30;53.22
45793;BME280;31495;42.740;22.908;2023-04-28T01:49:22;93308.13;;;3.59;53.99
45793;BME280;31495;42.740;22.908;2023-04-28T01:50:22;93326.81;;;3.68;53.97
45793;BME280;31495;42.740;22.908;2023-04-28T01:51:22;93311.97;;;3.47;53.36
45793;BME280;31495;42.740;22.908;2023-04-28T01:52:21;93300.97;;;3.38;53.99
45793;BME280;31495;42.740;22.908;2023-04-28T01:53:22;93315.16;;;3.57;53.77
45793;BME280;31495;42.740;22.908;2023-04-28T01:54:22;93257.03;;;3.18;53.95
45793;BME280;31495;42.740;22.908;2023-04-28T01:55:21;93329.53;;;3.66;53.56
45793;BME280;31495;42.740;22.908;2023-04-28T01:56:21;93323.16;;;3.71;53.86
45793;BME280;31495;42.740;22.908;2023-04-28T01:57:20;93318.03;;;3.71;53.93
45793;BME280;31495;42.740;22.908;2023-04-28T01:58:20;93287.84;;;3.58;53.97
45793;BME280;31495;42.740;22.908;2023-04-28T01:59:19;93326.47;;;3.79;54.56
45793;BME280;31495;42.740;22.908;2023-04-28T02:00:19;93324.38;;;3.83;55.46
45793;BME280;31495;42.740;22.908;2023-04-28T02:01:19;93318.50;;;3.74;55.71
45793;BME280;31495;42.740;22.908;2023-04-28T02:02:18;93330.63;;;3.80;55.80
45793;BME280;31495;42.740;22.908;2023-04-28T02:03:17;93315.63;;;3.77;55.39
45793;BME280;31495;42.740;22.908;2023-04-28T02:04:17;93309.38;;;3.72;55.52
45793;BME280;31495;42.740;22.908;2023-04-28T02:05:16;93328.75;;;3.74;55.81
45793;BME280;31495;42.740;22.908;2023-04-28T02:06:16;93331.94;;;3.76;55.94
45793;BME280;31495;42.740;22.908;2023-04-28T02:07:15;93322.63;;;3.75;55.29
45793;BME280;31495;42.740;22.908;2023-04-28T02:08:14;93306.50;;;3.66;55.11
45793;BME280;31495;42.740;22.908;2023-04-28T02:09:14;93297.22;;;3.65;56.09
45793;BME280;31495;42.740;22.908;2023-04-28T02:10:14;93315.28;;;3.72;55.90
45793;BME280;31495;42.740;22.908;2023-04-28T02:11:13;93333.19;;;3.80;56.14
45793;BME280;31495;42.740;22.908;2023-04-28T02:12:12;93310.69;;;3.67;56.10
45793;BME280;31495;42.740;22.908;2023-04-28T02:13:12;93325.19;;;3.83;55.87
45793;BME280;31495;42.740;22.908;2023-04-28T02:14:11;93265.16;;;3.38;56.04
45793;BME280;31495;42.740;22.908;2023-04-28T02:15:11;93332.56;;;3.78;56.30
45793;BME280;31495;42.740;22.908;2023-04-28T02:16:10;93314.66;;;3.70;56.54
45793;BME280;31495;42.740;22.908;2023-04-28T02:17:09;93318.53;;;3.66;56.56
45793;BME280;31495;42.740;22.908;2023-04-28T02:18:09;93330.00;;;3.70;56.08
45793;BME280;31495;42.740;22.908;2023-04-28T02:19:09;93339.13;;;3.73;55.96
45793;BME280;31495;42.740;22.908;2023-04-28T02:20:09;93255.13;;;3.20;56.24
45793;BME280;31495;42.740;22.908;2023-04-28T02:21:10;93332.41;;;3.72;56.50
45793;BME280;31495;42.740;22.908;2023-04-28T02:22:10;93329.69;;;3.65;56.27
45793;BME280;31495;42.740;22.908;2023-04-28T02:23:09;93333.38;;;3.71;55.46
45793;BME280;31495;42.740;22.908;2023-04-28T02:24:08;93308.00;;;3.36;56.42
45793;BME280;31495;42.740;22.908;2023-04-28T02:25:08;93280.06;;;3.18;56.25
45793;BME280;31495;42.740;22.908;2023-04-28T02:26:08;93328.47;;;3.44;55.93
45793;BME280;31495;42.740;22.908;2023-04-28T02:27:07;93342.19;;;3.60;56.14
45793;BME280;31495;42.740;22.908;2023-04-28T02:28:07;93342.97;;;3.60;56.01
45793;BME280;31495;42.740;22.908;2023-04-28T02:29:06;93272.69;;;3.23;56.15
45793;BME280;31495;42.740;22.908;2023-04-28T02:30:06;93337.38;;;3.65;55.86
45793;BME280;31495;42.740;22.908;2023-04-28T02:31:08;93305.59;;;3.43;55.62
45793;BME280;31495;42.740;22.908;2023-04-28T02:32:08;93344.13;;;3.58;55.31
45793;BME280;31495;42.740;22.908;2023-04-28T02:33:07;93341.72;;;3.56;55.79
45793;BME280;31495;42.740;22.908;2023-04-28T02:34:06;93324.13;;;3.45;55.93
45793;BME280;31495;42.740;22.908;2023-04-28T02:35:06;93340.13;;;3.55;56.03
45793;BME280;31495;42.740;22.908;2023-04-28T02:36:07;93315.50;;;3.29;56.59
45793;BME280;31495;42.740;22.908;2023-04-28T02:37:06;93330.69;;;3.47;56.44
45793;BME280;31495;42.740;22.908;2023-04-28T02:38:06;93347.47;;;3.58;56.11
45793;BME280;31495;42.740;22.908;2023-04-28T02:39:05;93339.47;;;3.53;55.42
45793;BME280;31495;42.740;22.908;2023-04-28T02:40:05;93336.75;;;3.55;55.90
45793;BME280;31495;42.740;22.908;2023-04-28T02:41:06;93337.38;;;3.57;55.93
45793;BME280;31495;42.740;22.908;2023-04-28T02:42:07;93280.22;;;3.17;54.74
45793;BME280;31495;42.740;22.908;2023-04-28T02:43:06;93345.38;;;3.62;54.97
45793;BME280;31495;42.740;22.908;2023-04-28T02:44:06;93349.69;;;3.61;54.60
45793;BME280;31495;42.740;22.908;2023-04-28T02:45:05;93336.78;;;3.46;54.89
45793;BME280;31495;42.740;22.908;2023-04-28T02:46:05;93335.94;;;3.46;54.67
45793;BME280;31495;42.740;22.908;2023-04-28T02:47:05;93359.47;;;3.25;55.46
45793;BME280;31495;42.740;22.908;2023-04-28T02:48:04;93354.38;;;3.25;55.54
45793;BME280;31495;42.740;22.908;2023-04-28T02:49:04;93338.19;;;3.24;55.15
45793;BME280;31495;42.740;22.908;2023-04-28T02:50:04;93328.44;;;3.20;55.17
45793;BME280;31495;42.740;22.908;2023-04-28T02:51:04;93322.69;;;3.18;54.52
45793;BME280;31495;42.740;22.908;2023-04-28T02:52:04;93337.56;;;3.22;54.84
45793;BME280;31495;42.740;22.908;2023-04-28T02:53:03;93326.72;;;3.04;55.48
45793;BME280;31495;42.740;22.908;2023-04-28T02:54:03;93333.41;;;3.13;55.57
45793;BME280;31495;42.740;22.908;2023-04-28T02:55:03;93349.72;;;3.28;55.65
45793;BME280;31495;42.740;22.908;2023-04-28T02:56:03;93331.66;;;3.22;56.10
45793;BME280;31495;42.740;22.908;2023-04-28T02:57:02;93332.31;;;3.16;56.23
45793;BME280;31495;42.740;22.908;2023-04-28T02:58:02;93304.00;;;3.01;56.55
45793;BME280;31495;42.740;22.908;2023-04-28T02:59:02;93361.38;;;3.39;56.59
45793;BME280;31495;42.740;22.908;2023-04-28T03:00:02;93297.44;;;3.06;55.68
45793;BME280;31495;42.740;22.908;2023-04-28T03:01:02;93278.94;;;2.88;55.27
45793;BME280;31495;42.740;22.908;2023-04-28T03:02:01;93290.44;;;3.00;55.31
45793;BME280;31495;42.740;22.908;2023-04-28T03:03:00;93337.88;;;3.36;55.77
45793;BME280;31495;42.740;22.908;2023-04-28T03:04:00;93346.69;;;3.41;55.19
45793;BME280;31495;42.740;22.908;2023-04-28T03:04:59;93359.31;;;3.51;55.67
45793;BME280;31495;42.740;22.908;2023-04-28T03:05:59;93366.00;;;3.44;54.53
45793;BME280;31495;42.740;22.908;2023-04-28T03:06:59;93370.03;;;3.46;55.03
45793;BME280;31495;42.740;22.908;2023-04-28T03:07:58;93342.69;;;3.39;55.17
45793;BME280;31495;42.740;22.908;2023-04-28T03:08:58;93345.09;;;3.32;54.65
45793;BME280;31495;42.740;22.908;2023-04-28T03:09:58;93367.47;;;3.46;54.76
45793;BME280;31495;42.740;22.908;2023-04-28T03:10:57;93325.56;;;3.15;55.16
45793;BME280;31495;42.740;22.908;2023-04-28T03:11:57;93369.72;;;3.41;55.15
45793;BME280;31495;42.740;22.908;2023-04-28T03:12:56;93365.84;;;3.37;55.40
45793;BME280;31495;42.740;22.908;2023-04-28T03:13:55;93348.28;;;3.34;54.92
45793;BME280;31495;42.740;22.908;2023-04-28T03:14:55;93331.81;;;3.12;55.24
45793;BME280;31495;42.740;22.908;2023-04-28T03:15:55;93347.66;;;3.24;55.75
45793;BME280;31495;42.740;22.908;2023-04-28T03:16:54;93382.50;;;3.41;56.58
45793;BME280;31495;42.740;22.908;2023-04-28T03:17:55;93375.94;;;3.39;56.27
45793;BME280;31495;42.740;22.908;2023-04-28T03:18:54;93382.66;;;3.40;56.24
45793;BME280;31495;42.740;22.908;2023-04-28T03:19:53;93380.41;;;3.37;56.17
45793;BME280;31495;42.740;22.908;2023-04-28T03:20:53;93378.66;;;3.29;56.85
45793;BME280;31495;42.740;22.908;2023-04-28T03:21:53;93381.69;;;3.24;57.05
45793;BME280;31495;42.740;22.908;2023-04-28T03:22:52;93375.63;;;3.25;56.28
45793;BME280;31495;42.740;22.908;2023-04-28T03:23:52;93368.72;;;3.26;56.14
45793;BME280;31495;42.740;22.908;2023-04-28T03:24:52;93344.91;;;3.09;55.82
45793;BME280;31495;42.740;22.908;2023-04-28T03:25:51;93312.78;;;2.90;55.87
45793;BME280;31495;42.740;22.908;2023-04-28T03:26:51;93384.25;;;3.33;56.14
45793;BME280;31495;42.740;22.908;2023-04-28T03:27:50;93332.44;;;2.98;56.61
45793;BME280;31495;42.740;22.908;2023-04-28T03:28:49;93386.00;;;3.32;56.74
45793;BME280;31495;42.740;22.908;2023-04-28T03:29:49;93394.63;;;3.31;57.01
45793;BME280;31495;42.740;22.908;2023-04-28T03:30:48;93394.47;;;3.33;57.07
45793;BME280;31495;42.740;22.908;2023-04-28T03:31:48;93369.72;;;3.17;57.66
45793;BME280;31495;42.740;22.908;2023-04-28T03:32:47;93393.84;;;3.30;58.12
45793;BME280;31495;42.740;22.908;2023-04-28T03:33:47;93387.94;;;3.30;58.10
45793;BME280;31495;42.740;22.908;2023-04-28T03:34:47;93372.09;;;3.18;58.07
45793;BME280;31495;42.740;22.908;2023-04-28T03:35:46;93398.78;;;3.32;58.12
45793;BME280;31495;42.740;22.908;2023-04-28T03:36:46;93408.88;;;3.34;58.40
45793;BME280;31495;42.740;22.908;2023-04-28T03:37:45;93400.25;;;3.26;58.51
45793;BME280;31495;42.740;22.908;2023-04-28T03:38:44;93406.94;;;3.27;58.80
45793;BME280;31495;42.740;22.908;2023-04-28T03:39:44;93350.94;;;2.83;58.99
45793;BME280;31495;42.740;22.908;2023-04-28T03:40:43;93380.25;;;3.13;58.47
45793;BME280;31495;42.740;22.908;2023-04-28T03:41:42;93341.88;;;2.97;58.20
45793;BME280;31495;42.740;22.908;2023-04-28T03:42:42;93334.34;;;2.87;58.25
45793;BME280;31495;42.740;22.908;2023-04-28T03:43:41;93397.97;;;3.15;58.24
45793;BME280;31495;42.740;22.908;2023-04-28T03:44:41;93413.66;;;3.28;58.81
45793;BME280;31495;42.740;22.908;2023-04-28T03:45:40;93393.34;;;3.19;59.08
45793;BME280;31495;42.740;22.908;2023-04-28T03:46:40;93419.56;;;3.29;58.78
45793;BME280;31495;42.740;22.908;2023-04-28T03:47:39;93366.47;;;2.98;59.16
45793;BME280;31495;42.740;22.908;2023-04-28T03:48:39;93384.38;;;3.06;59.26
45793;BME280;31495;42.740;22.908;2023-04-28T03:49:39;93417.16;;;3.27;59.55
45793;BME280;31495;42.740;22.908;2023-04-28T03:50:39;93412.50;;;3.15;59.48
45793;BME280;31495;42.740;22.908;2023-04-28T03:51:39;93412.19;;;3.09;59.34
45793;BME280;31495;42.740;22.908;2023-04-28T03:52:39;93408.19;;;3.07;58.86
45793;BME280;31495;42.740;22.908;2023-04-28T03:53:38;93413.94;;;3.09;59.45
45793;BME280;31495;42.740;22.908;2023-04-28T03:54:38;93333.75;;;2.43;59.69
45793;BME280;31495;42.740;22.908;2023-04-28T03:55:37;93425.28;;;3.06;59.46
45793;BME280;31495;42.740;22.908;2023-04-28T03:56:37;93430.53;;;3.05;59.29
45793;BME280;31495;42.740;22.908;2023-04-28T03:57:36;93428.78;;;2.97;59.74
45793;BME280;31495;42.740;22.908;2023-04-28T03:58:36;93399.66;;;2.82;60.02
45793;BME280;31495;42.740;22.908;2023-04-28T03:59:36;93419.03;;;2.92;60.23
45793;BME280;31495;42.740;22.908;2023-04-28T04:00:35;93433.44;;;3.02;60.62
45793;BME280;31495;42.740;22.908;2023-04-28T04:01:34;93420.13;;;2.90;60.63
45793;BME280;31495;42.740;22.908;2023-04-28T04:02:34;93407.31;;;2.73;60.42
45793;BME280;31495;42.740;22.908;2023-04-28T04:03:33;93431.63;;;2.86;60.56
45793;BME280;31495;42.740;22.908;2023-04-28T04:04:33;93438.00;;;2.90;60.46
45793;BME280;31495;42.740;22.908;2023-04-28T04:05:32;93447.47;;;2.98;60.31
45793;BME280;31495;42.740;22.908;2023-04-28T04:06:32;93441.75;;;3.04;60.18
45793;BME280;31495;42.740;22.908;2023-04-28T04:07:32;93420.94;;;2.90;60.31
45793;BME280;31495;42.740;22.908;2023-04-28T04:08:31;93437.56;;;2.94;61.27
45793;BME280;31495;42.740;22.908;2023-04-28T04:09:31;93438.69;;;2.92;61.54
45793;BME280;31495;42.740;22.908;2023-04-28T04:10:31;93429.53;;;2.81;61.77
45793;BME280;31495;42.740;22.908;2023-04-28T04:11:30;93436.75;;;2.94;61.57
45793;BME280;31495;42.740;22.908;2023-04-28T04:12:30;93434.66;;;2.89;61.36
45793;BME280;31495;42.740;22.908;2023-04-28T04:13:30;93420.41;;;2.79;61.26
45793;BME280;31495;42.740;22.908;2023-04-28T04:14:29;93450.63;;;2.91;61.35
45793;BME280;31495;42.740;22.908;2023-04-28T04:15:29;93428.91;;;2.79;60.52
45793;BME280;31495;42.740;22.908;2023-04-28T04:16:28;93456.53;;;2.84;60.58
45793;BME280;31495;42.740;22.908;2023-04-28T04:17:28;93435.06;;;2.68;60.75
45793;BME280;31495;42.740;22.908;2023-04-28T04:18:28;93453.31;;;2.82;60.51
45793;BME280;31495;42.740;22.908;2023-04-28T04:19:27;93438.16;;;2.80;60.47
45793;BME280;31495;42.740;22.908;2023-04-28T04:20:27;93450.16;;;2.88;60.70
45793;BME280;31495;42.740;22.908;2023-04-28T04:21:26;93420.06;;;2.65;60.71
45793;BME280;31495;42.740;22.908;2023-04-28T04:22:25;93430.94;;;2.67;60.95
45793;BME280;31495;42.740;22.908;2023-04-28T04:23:25;93424.84;;;2.68;61.27
45793;BME280;31495;42.740;22.908;2023-04-28T04:24:24;93435.09;;;2.76;61.78
45793;BME280;31495;42.740;22.908;2023-04-28T04:25:24;93419.09;;;2.66;62.20
45793;BME280;31495;42.740;22.908;2023-04-28T04:26:24;93433.00;;;2.72;61.60
45793;BME280;31495;42.740;22.908;2023-04-28T04:27:23;93451.06;;;2.79;61.22
45793;BME280;31495;42.740;22.908;2023-04-28T04:28:23;93397.50;;;2.52;61.22
45793;BME280;31495;42.740;22.908;2023-04-28T04:29:22;93453.81;;;2.85;61.79
45793;BME280;31495;42.740;22.908;2023-04-28T04:30:22;93422.31;;;2.68;61.87
45793;BME280;31495;42.740;22.908;2023-04-28T04:31:21;93419.25;;;2.65;61.41
45793;BME280;31495;42.740;22.908;2023-04-28T04:32:21;93426.47;;;2.69;61.19
45793;BME280;31495;42.740;22.908;2023-04-28T04:33:21;93427.09;;;2.71;61.44
45793;BME280;31495;42.740;22.908;2023-04-28T04:34:20;93430.78;;;2.77;61.15
45793;BME280;31495;42.740;22.908;2023-04-28T04:35:19;93435.75;;;2.87;61.09
45793;BME280;31495;42.740;22.908;2023-04-28T04:36:19;93431.00;;;2.84;61.11
45793;BME280;31495;42.740;22.908;2023-04-28T04:37:19;93458.66;;;3.05;61.32
45793;BME280;31495;42.740;22.908;2023-04-28T04:38:18;93429.41;;;2.91;61.37
45793;BME280;31495;42.740;22.908;2023-04-28T04:39:18;93409.25;;;2.80;61.24
45793;BME280;31495;42.740;22.908;2023-04-28T04:40:17;93424.13;;;2.92;61.16
45793;BME280;31495;42.740;22.908;2023-04-28T04:41:17;93457.44;;;3.25;60.99
45793;BME280;31495;42.740;22.908;2023-04-28T04:42:20;93461.13;;;3.31;61.11
45793;BME280;31495;42.740;22.908;2023-04-28T04:43:20;93457.63;;;3.32;61.00
45793;BME280;31495;42.740;22.908;2023-04-28T04:44:19;93464.19;;;3.35;60.98
45793;BME280;31495;42.740;22.908;2023-04-28T04:45:19;93422.09;;;3.12;60.92
45793;BME280;31495;42.740;22.908;2023-04-28T04:46:19;93438.25;;;3.21;61.02
45793;BME280;31495;42.740;22.908;2023-04-28T04:47:19;93450.72;;;3.33;60.97
45793;BME280;31495;42.740;22.908;2023-04-28T04:48:19;93463.06;;;3.37;60.96
45793;BME280;31495;42.740;22.908;2023-04-28T04:49:18;93451.06;;;3.38;61.00
45793;BME280;31495;42.740;22.908;2023-04-28T04:50:18;93459.09;;;3.43;61.22
45793;BME280;31495;42.740;22.908;2023-04-28T04:51:17;93460.03;;;3.50;61.14
45793;BME280;31495;42.740;22.908;2023-04-28T04:52:17;93458.13;;;3.52;61.12
45793;BME280;31495;42.740;22.908;2023-04-28T04:53:17;93445.16;;;3.54;61.15
45793;BME280;31495;42.740;22.908;2023-04-28T04:54:16;93466.28;;;3.64;61.03
45793;BME280;31495;42.740;22.908;2023-04-28T04:55:16;93457.50;;;3.66;60.86
45793;BME280;31495;42.740;22.908;2023-04-28T04:56:15;93445.31;;;3.60;60.44
45793;BME280;31495;42.740;22.908;2023-04-28T04:57:15;93437.00;;;3.58;60.14
45793;BME280;31495;42.740;22.908;2023-04-28T04:58:15;93465.47;;;3.80;59.51
45793;BME280;31495;42.740;22.908;2023-04-28T04:59:14;93441.19;;;3.67;59.22
45793;BME280;31495;42.740;22.908;2023-04-28T05:00:14;93469.50;;;3.82;59.23
45793;BME280;31495;42.740;22.908;2023-04-28T05:01:15;93442.78;;;3.68;59.38
45793;BME280;31495;42.740;22.908;2023-04-28T05:02:14;93472.38;;;3.88;58.95
45793;BME280;31495;42.740;22.908;2023-04-28T05:03:13;93481.31;;;3.92;58.40
45793;BME280;31495;42.740;22.908;2023-04-28T05:04:13;93458.78;;;3.87;57.31
45793;BME280;31495;42.740;22.908;2023-04-28T05:05:13;93480.06;;;3.96;57.42
45793;BME280;31495;42.740;22.908;2023-04-28T05:06:12;93459.56;;;3.88;57.54
45793;BME280;31495;42.740;22.908;2023-04-28T05:07:12;93482.59;;;3.96;57.81
45793;BME280;31495;42.740;22.908;2023-04-28T05:08:12;93473.97;;;3.97;57.89
45793;BME280;31495;42.740;22.908;2023-04-28T05:09:12;93473.97;;;3.97;57.65
45793;BME280;31495;42.740;22.908;2023-04-28T05:10:11;93475.41;;;4.08;58.61
45793;BME280;31495;42.740;22.908;2023-04-28T05:11:10;93481.97;;;4.10;58.99
45793;BME280;31495;42.740;22.908;2023-04-28T05:12:10;93478.91;;;4.15;58.97
45793;BME280;31495;42.740;22.908;2023-04-28T05:13:09;93463.22;;;4.10;58.60
45793;BME280;31495;42.740;22.908;2023-04-28T05:14:09;93456.84;;;4.05;58.32
45793;BME280;31495;42.740;22.908;2023-04-28T05:15:09;93451.88;;;4.04;58.11
45793;BME280;31495;42.740;22.908;2023-04-28T05:16:09;93420.03;;;3.90;58.09